McCaulley, Texas
Current Conditions -  °F | °C
As of 2:15 AM on Thursday 27 Nov 2014 (Local Time) from KSWW Reporting Station
Clear Clear  
Wind Chill: 42°   Ceiling: Unl
Heat Index: 44°   Visibility: 7mi
Dew Point: 34°   Wind: 5mph
Humidity: 67%   Direction: 50°NE
Pressure: 30.44"   Gusts: NA
Location:  32.78°N, 100.21°W
Report Text: KSWW 270815Z AUTO 05004KT 7SM CLR 07/01 A3044 RMK AO2 T00680010
Loading
Personal Weather Stations






























Interactive Weather Map New forecast layout! Learn more

10-Day Weather Forecast

Advertisements
Track Severe Weather on mobile